createdAt,value
2022-11-09T00:01:14.578Z,83.92
2022-11-09T00:03:43.960Z,84.45
2022-11-09T00:06:16.591Z,84.31
2022-11-09T00:08:46.539Z,84.20
2022-11-09T00:11:23.532Z,84.33
2022-11-09T00:13:54.169Z,84.64
2022-11-09T00:16:27.942Z,84.59
2022-11-09T00:19:03.258Z,84.52
2022-11-09T00:21:37.549Z,84.47
2022-11-09T00:24:07.356Z,84.51
2022-11-09T00:26:36.677Z,84.48
2022-11-09T00:29:12.348Z,84.05
2022-11-09T00:31:43.955Z,84.04
2022-11-09T00:34:18.812Z,84.19
2022-11-09T00:36:48.768Z,84.23
2022-11-09T00:39:18.309Z,84.52
2022-11-09T00:41:51.202Z,84.33
2022-11-09T00:44:23.023Z,84.18
2022-11-09T00:46:52.851Z,83.96
2022-11-09T00:49:25.305Z,83.60
2022-11-09T00:51:58.183Z,83.69
2022-11-09T00:54:27.720Z,83.53
2022-11-09T00:56:59.214Z,83.43
2022-11-09T00:59:32.245Z,83.16
2022-11-09T01:02:04.395Z,83.09
2022-11-09T01:04:33.228Z,83.31
2022-11-09T01:07:03.136Z,83.60
2022-11-09T01:09:33.625Z,83.66
2022-11-09T01:12:03.862Z,83.54
2022-11-09T01:14:46.878Z,83.28
2022-11-09T01:17:15.807Z,83.26
2022-11-09T01:19:47.576Z,83.40
2022-11-09T01:22:20.475Z,83.44
2022-11-09T01:24:53.057Z,83.78
2022-11-09T01:27:26.066Z,84.24
2022-11-09T01:30:00.258Z,84.32
2022-11-09T01:32:34.611Z,84.21
2022-11-09T01:35:04.073Z,84.26
2022-11-09T01:37:35.691Z,84.25
2022-11-09T01:40:10.958Z,84.20
2022-11-09T01:42:45.236Z,84.16
2022-11-09T01:45:33.848Z,84.24
2022-11-09T01:48:15.900Z,84.56
2022-11-09T01:50:57.069Z,84.74
2022-11-09T01:53:38.227Z,85.00
2022-11-09T01:56:12.691Z,85.57
2022-11-09T01:59:07.296Z,86.11
2022-11-09T02:01:40.241Z,86.64
2022-11-09T02:04:20.333Z,87.06
2022-11-09T02:06:52.566Z,87.31
2022-11-09T02:09:31.614Z,87.44
2022-11-09T02:12:04.727Z,87.90
2022-11-09T02:14:39.046Z,88.13
2022-11-09T02:17:16.429Z,88.47
2022-11-09T02:19:45.820Z,88.60
2022-11-09T02:22:19.320Z,88.56
2022-11-09T02:24:53.946Z,88.71
2022-11-09T02:27:32.056Z,89.06
2022-11-09T02:30:17.031Z,89.38
2022-11-09T02:32:50.207Z,89.81
2022-11-09T02:35:19.817Z,89.93
2022-11-09T02:37:53.226Z,90.03
2022-11-09T02:40:33.148Z,90.19
2022-11-09T02:43:05.087Z,90.26
2022-11-09T02:45:35.318Z,90.12
2022-11-09T02:48:08.761Z,89.92
2022-11-09T02:50:43.569Z,89.84
2022-11-09T02:53:14.989Z,89.75
2022-11-09T02:55:44.138Z,90.02
2022-11-09T02:58:13.206Z,90.08
2022-11-09T03:00:45.318Z,90.22
2022-11-09T03:03:17.386Z,90.59
2022-11-09T03:05:46.712Z,91.08
2022-11-09T03:08:18.989Z,91.81
2022-11-09T03:10:55.179Z,92.05
2022-11-09T03:13:26.402Z,92.30
2022-11-09T03:15:56.515Z,92.41
2022-11-09T03:18:35.147Z,92.55
2022-11-09T03:21:10.432Z,92.85
2022-11-09T03:23:44.930Z,92.87
2022-11-09T03:26:15.140Z,93.08
2022-11-09T03:28:48.202Z,92.84
2022-11-09T03:31:18.385Z,92.75
2022-11-09T03:33:47.530Z,92.91
2022-11-09T03:36:20.240Z,92.96
2022-11-09T03:38:57.757Z,92.82
2022-11-09T03:41:34.551Z,92.56
2022-11-09T03:44:06.878Z,92.58
2022-11-09T03:46:37.207Z,92.66
2022-11-09T03:49:06.439Z,92.74
2022-11-09T03:51:46.300Z,92.62
2022-11-09T03:54:17.133Z,92.62
2022-11-09T03:56:50.026Z,92.39
2022-11-09T03:59:19.725Z,92.37
2022-11-09T04:01:48.818Z,92.05
2022-11-09T04:04:20.540Z,91.97
2022-11-09T04:06:50.327Z,91.66
2022-11-09T04:09:35.192Z,91.04
2022-11-09T04:12:04.398Z,90.03
2022-11-09T04:14:41.822Z,88.82
2022-11-09T04:17:11.028Z,88.45
2022-11-09T04:19:43.567Z,88.17
2022-11-09T04:22:14.374Z,87.72
2022-11-09T04:24:57.830Z,87.66
2022-11-09T04:27:38.177Z,87.43
2022-11-09T04:30:12.082Z,87.64
2022-11-09T04:32:41.825Z,87.37
2022-11-09T04:35:17.392Z,87.35
2022-11-09T04:37:56.186Z,87.51
2022-11-09T04:40:33.750Z,87.49
2022-11-09T04:43:07.273Z,87.86
2022-11-09T04:45:36.935Z,88.17
2022-11-09T04:48:09.424Z,88.66
2022-11-09T04:50:40.334Z,88.79
2022-11-09T04:53:15.105Z,88.69
2022-11-09T04:55:48.569Z,88.69
2022-11-09T04:58:24.945Z,88.67
2022-11-09T05:01:10.671Z,88.78
2022-11-09T05:03:40.580Z,88.82
2022-11-09T05:06:31.873Z,89.26
2022-11-09T05:09:05.198Z,89.54
2022-11-09T05:11:37.495Z,89.76
2022-11-09T05:14:06.565Z,89.54
2022-11-09T05:16:36.894Z,88.94
2022-11-09T05:19:07.701Z,88.68
2022-11-09T05:21:37.583Z,88.42
2022-11-09T05:24:13.811Z,88.27
2022-11-09T05:26:48.960Z,88.25
2022-11-09T05:29:18.124Z,88.11
2022-11-09T05:31:51.994Z,88.02
2022-11-09T05:34:23.627Z,88.09
2022-11-09T05:36:53.143Z,88.10
2022-11-09T05:39:25.423Z,88.26
2022-11-09T05:42:03.571Z,88.55
2022-11-09T05:44:35.889Z,88.93
2022-11-09T05:47:08.256Z,88.90
2022-11-09T05:49:41.418Z,88.61
2022-11-09T05:52:23.595Z,88.74
2022-11-09T05:55:08.883Z,88.64
2022-11-09T05:57:42.642Z,88.46
2022-11-09T06:00:13.859Z,88.27
2022-11-09T06:02:54.018Z,88.04
2022-11-09T06:05:25.695Z,88.07
2022-11-09T06:07:59.491Z,88.17
2022-11-09T06:10:36.283Z,88.15
2022-11-09T06:13:08.240Z,88.13
2022-11-09T06:15:45.787Z,88.28
2022-11-09T06:18:33.525Z,88.16
2022-11-09T06:21:14.792Z,88.05
2022-11-09T06:23:45.321Z,88.10
2022-11-09T06:26:14.773Z,88.20
2022-11-09T06:28:56.701Z,88.05
2022-11-09T06:31:30.084Z,88.17
2022-11-09T06:34:04.767Z,88.29
2022-11-09T06:36:39.998Z,88.51
2022-11-09T06:39:10.817Z,88.65
2022-11-09T06:41:43.368Z,88.90
2022-11-09T06:44:27.168Z,89.05
2022-11-09T06:46:56.335Z,89.27
2022-11-09T06:49:51.338Z,88.94
2022-11-09T06:52:20.962Z,88.92
2022-11-09T06:54:57.266Z,88.90
2022-11-09T06:57:28.454Z,88.81
2022-11-09T07:00:00.440Z,88.55
2022-11-09T07:02:30.471Z,88.34
2022-11-09T07:05:05.600Z,88.42
2022-11-09T07:07:34.837Z,88.23
2022-11-09T07:10:06.759Z,88.15
2022-11-09T07:12:38.793Z,87.99
2022-11-09T07:15:19.190Z,87.30
2022-11-09T07:17:49.388Z,87.04
2022-11-09T07:20:20.846Z,86.58
2022-11-09T07:22:55.719Z,86.60
2022-11-09T07:26:21.408Z,85.98
2022-11-09T07:29:22.464Z,85.76
2022-11-09T07:33:01.996Z,86.09
2022-11-09T07:35:21.545Z,85.61
2022-11-09T07:37:51.513Z,86.15
2022-11-09T07:40:24.971Z,86.17
2022-11-09T07:42:59.955Z,86.28
2022-11-09T07:45:37.348Z,86.24
2022-11-09T07:48:18.449Z,86.01
2022-11-09T07:50:47.797Z,86.14
2022-11-09T07:56:11.310Z,85.80
2022-11-09T07:58:55.347Z,85.41
2022-11-09T08:01:25.930Z,85.29
2022-11-09T08:04:04.558Z,85.01
2022-11-09T08:06:43.881Z,84.64
2022-11-09T08:09:14.024Z,84.74
2022-11-09T08:11:46.172Z,84.64
2022-11-09T08:14:21.675Z,85.13
2022-11-09T08:16:59.195Z,85.06
2022-11-09T08:19:38.730Z,85.24
2022-11-09T08:22:16.798Z,84.99
2022-11-09T08:24:50.464Z,84.73
2022-11-09T08:27:20.210Z,84.25
2022-11-09T08:29:50.256Z,84.23
2022-11-09T08:32:25.586Z,84.11
2022-11-09T08:35:02.651Z,83.95
2022-11-09T08:37:58.513Z,83.70
2022-11-09T08:40:28.836Z,83.69
2022-11-09T08:43:12.303Z,83.73
2022-11-09T09:20:13.574Z,82.23
2022-11-09T09:26:37.923Z,81.18
2022-11-09T09:32:37.040Z,79.86
2022-11-09T09:39:46.876Z,78.73
2022-11-09T09:55:08.481Z,78.34
2022-11-09T09:58:55.270Z,78.50
2022-11-09T10:05:32.452Z,78.26
2022-11-09T11:04:59.701Z,73.47
2022-11-09T11:08:07.895Z,73.26
2022-11-09T11:14:25.460Z,70.93
2022-11-09T11:17:00.663Z,70.68
2022-11-09T11:19:42.917Z,69.37
2022-11-09T11:22:31.556Z,68.54
2022-11-09T11:25:27.314Z,67.84
2022-11-09T11:29:12.153Z,67.19
2022-11-09T11:33:17.341Z,66.76
2022-11-09T11:44:09.658Z,71.72
2022-11-09T11:46:48.052Z,72.99
2022-11-09T11:54:24.278Z,73.20
2022-11-09T11:57:46.181Z,72.29
2022-11-09T12:08:16.404Z,70.51
2022-11-09T12:11:40.142Z,71.04
2022-11-09T12:14:34.598Z,72.22
2022-11-09T12:17:44.264Z,72.92
2022-11-09T12:20:43.007Z,73.06
2022-11-09T12:23:54.714Z,72.97
2022-11-09T12:27:10.904Z,72.67
2022-11-09T12:30:12.486Z,72.54
2022-11-09T12:32:56.378Z,72.49
2022-11-09T12:35:46.127Z,72.07
2022-11-09T12:38:22.517Z,72.75
2022-11-09T12:41:05.348Z,73.03
2022-11-09T12:44:57.082Z,72.01
2022-11-09T12:59:37.806Z,71.17
2022-11-09T13:05:57.317Z,71.80
2022-11-09T13:08:45.416Z,71.97
2022-11-09T13:11:47.964Z,72.07
2022-11-09T13:15:44.845Z,72.63
2022-11-09T13:20:40.549Z,72.73
2022-11-09T13:27:05.156Z,73.90
2022-11-09T13:30:00.826Z,74.20
2022-11-09T13:32:36.411Z,74.44
2022-11-09T13:35:24.212Z,74.96
2022-11-09T13:38:28.249Z,75.36
2022-11-09T13:41:54.694Z,75.73
2022-11-09T13:49:04.504Z,75.81
2022-11-09T13:55:42.140Z,76.18
2022-11-09T13:58:39.921Z,76.70
2022-11-09T14:02:24.775Z,76.96
2022-11-09T14:05:06.298Z,77.07
2022-11-09T14:07:45.522Z,77.03
2022-11-09T14:11:12.666Z,76.82
2022-11-09T14:14:33.996Z,77.22
2022-11-09T14:17:24.174Z,77.50
2022-11-09T14:20:13.200Z,77.42
2022-11-09T14:22:43.793Z,77.68
2022-11-09T14:28:27.637Z,77.97
2022-11-09T14:31:04.526Z,78.11
2022-11-09T14:33:36.553Z,77.72
2022-11-09T14:36:20.604Z,76.70
2022-11-09T14:45:55.390Z,75.16
2022-11-09T14:48:49.867Z,77.07
2022-11-09T14:51:57.304Z,78.90
2022-11-09T14:54:32.236Z,80.62
2022-11-09T14:57:19.934Z,81.95
2022-11-09T14:59:57.679Z,82.90
2022-11-09T15:02:50.739Z,83.54
2022-11-09T15:06:08.205Z,84.64
2022-11-09T15:08:47.559Z,86.02
2022-11-09T15:11:57.239Z,87.32
2022-11-09T15:14:43.023Z,88.57
2022-11-09T15:17:20.727Z,89.50
2022-11-09T15:20:03.133Z,90.47
2022-11-09T15:23:33.353Z,91.46
2022-11-09T15:26:03.374Z,92.70
2022-11-09T15:28:55.427Z,93.65
2022-11-09T15:31:31.868Z,94.51
2022-11-09T15:34:27.293Z,95.35
2022-11-09T15:37:01.578Z,96.20
2022-11-09T15:39:38.169Z,97.27
2022-11-09T15:42:07.655Z,98.10
2022-11-09T15:44:45.185Z,98.72
2022-11-09T15:47:49.977Z,99.72
2022-11-09T15:50:27.292Z,100.00
2022-11-09T15:53:00.995Z,100.00
2022-11-09T15:55:31.732Z,100.00
2022-11-09T15:58:02.447Z,100.00
2022-11-09T16:00:38.039Z,100.00
2022-11-09T16:03:17.600Z,100.00
2022-11-09T16:05:47.764Z,100.00
2022-11-09T16:08:17.153Z,100.00
2022-11-09T16:18:25.915Z,100.00
2022-11-09T16:20:58.839Z,100.00
2022-11-09T16:23:42.646Z,100.00
2022-11-09T16:26:19.016Z,100.00
2022-11-09T16:28:56.389Z,100.00
2022-11-09T16:31:50.918Z,100.00
2022-11-09T16:34:20.814Z,100.00
2022-11-09T16:36:57.390Z,100.00
2022-11-09T16:39:44.216Z,100.00
2022-11-09T16:42:17.713Z,100.00
2022-11-09T16:44:58.298Z,100.00
2022-11-09T16:47:27.270Z,100.00
2022-11-09T16:49:56.720Z,100.00
2022-11-09T16:52:26.296Z,100.00
2022-11-09T16:54:56.991Z,100.00
2022-11-09T16:57:37.875Z,100.00
2022-11-09T17:00:20.140Z,100.00
2022-11-09T17:02:52.819Z,100.00
2022-11-09T17:05:28.003Z,100.00
2022-11-09T17:08:00.834Z,100.00
2022-11-09T17:10:30.808Z,100.00
2022-11-09T17:13:08.760Z,100.00
2022-11-09T17:15:48.612Z,100.00
2022-11-09T17:18:24.268Z,99.99
2022-11-09T17:20:54.397Z,99.55
2022-11-09T17:23:23.353Z,99.32
2022-11-09T17:26:05.449Z,99.05
2022-11-09T17:28:44.529Z,98.92
2022-11-09T17:31:21.641Z,98.70
2022-11-09T17:34:01.113Z,98.14
2022-11-09T17:37:02.883Z,97.32
2022-11-09T17:39:37.839Z,96.58
2022-11-09T17:42:07.871Z,96.44
2022-11-09T17:44:45.597Z,96.27
2022-11-09T17:47:16.567Z,95.93
2022-11-09T17:49:51.540Z,95.52
2022-11-09T17:52:31.581Z,94.90
2022-11-09T17:55:13.293Z,94.66
2022-11-09T17:57:50.293Z,94.20
2022-11-09T18:00:37.774Z,93.97
2022-11-09T18:03:08.451Z,94.08
2022-11-09T18:05:41.064Z,94.36
2022-11-09T18:08:15.223Z,94.60
2022-11-09T18:10:46.982Z,94.82
2022-11-09T18:13:24.797Z,95.37
2022-11-09T18:15:58.293Z,95.71
2022-11-09T18:18:35.171Z,96.14
2022-11-09T18:21:24.827Z,96.39
2022-11-09T18:23:57.637Z,96.50
2022-11-09T18:26:31.692Z,96.33
2022-11-09T18:29:05.519Z,96.36
2022-11-09T18:31:36.323Z,96.11
2022-11-09T18:34:08.621Z,95.98
2022-11-09T18:36:38.481Z,95.76
2022-11-09T18:39:15.548Z,95.33
2022-11-09T18:41:51.627Z,95.88
2022-11-09T18:44:31.623Z,96.43
2022-11-09T18:47:05.229Z,96.95
2022-11-09T18:49:51.799Z,98.21
2022-11-09T18:52:37.103Z,100.00
2022-11-09T18:55:14.763Z,100.00
2022-11-09T18:57:44.531Z,100.00
2022-11-09T19:00:28.159Z,100.00
2022-11-09T19:03:07.335Z,100.00
2022-11-09T19:05:42.632Z,100.00
2022-11-09T19:08:18.534Z,100.00
2022-11-09T19:10:53.495Z,100.00
2022-11-09T19:13:22.990Z,100.00
2022-11-09T19:19:03.453Z,100.00
2022-11-09T19:21:49.725Z,100.00
2022-11-09T19:24:40.242Z,100.00
2022-11-09T19:27:15.609Z,100.00
2022-11-09T19:29:54.951Z,100.00
2022-11-09T19:32:32.508Z,100.00
2022-11-09T19:35:10.711Z,100.00
2022-11-09T19:37:45.232Z,100.00
2022-11-09T19:40:17.933Z,100.00
2022-11-09T19:42:53.776Z,100.00
2022-11-09T19:45:59.599Z,100.00
2022-11-09T19:48:56.545Z,100.00
2022-11-09T19:51:40.726Z,100.00
2022-11-09T19:54:14.655Z,100.00
2022-11-09T19:56:45.438Z,100.00
2022-11-09T19:59:31.132Z,100.00
2022-11-09T20:02:10.087Z,100.00
2022-11-09T20:04:48.033Z,99.66
2022-11-09T20:07:25.645Z,98.58
2022-11-09T20:09:58.049Z,98.11
2022-11-09T20:12:48.840Z,97.88
2022-11-09T20:15:19.972Z,97.63
2022-11-09T20:18:03.329Z,97.79
2022-11-09T20:20:37.824Z,98.17
2022-11-09T20:23:12.033Z,98.53
2022-11-09T20:25:54.763Z,98.86
2022-11-09T20:28:28.258Z,98.99
2022-11-09T20:31:08.862Z,99.35
2022-11-09T20:33:44.084Z,99.78
2022-11-09T20:36:15.023Z,100.00
2022-11-09T20:39:09.932Z,100.00
2022-11-09T20:41:39.160Z,100.00
2022-11-09T20:44:14.819Z,100.00
2022-11-09T20:46:51.026Z,100.00
2022-11-09T20:49:27.021Z,100.00
2022-11-09T20:54:51.794Z,99.70
2022-11-09T20:57:49.030Z,99.44
2022-11-09T21:00:26.537Z,98.93
2022-11-09T21:03:52.372Z,98.33
2022-11-09T21:06:23.653Z,98.66
2022-11-09T21:09:02.368Z,99.22
2022-11-09T21:12:01.596Z,99.85
2022-11-09T21:14:34.464Z,100.00
2022-11-09T21:17:08.975Z,100.00
2022-11-09T21:19:41.350Z,100.00
2022-11-09T21:22:11.988Z,100.00
2022-11-09T21:24:58.647Z,100.00
2022-11-09T21:27:53.629Z,100.00
2022-11-09T21:30:34.270Z,100.00
2022-11-09T21:33:08.970Z,100.00
2022-11-09T21:35:38.147Z,100.00
2022-11-09T21:38:18.540Z,100.00
2022-11-09T21:40:53.794Z,100.00
2022-11-09T21:43:28.967Z,100.00
2022-11-09T21:46:04.857Z,100.00
2022-11-09T21:48:38.699Z,100.00
2022-11-09T21:51:15.631Z,100.00
2022-11-09T21:53:51.723Z,100.00
2022-11-09T21:56:29.998Z,100.00
2022-11-09T21:59:03.638Z,100.00
2022-11-09T22:01:35.417Z,100.00
2022-11-09T22:04:08.435Z,100.00
2022-11-09T22:07:30.516Z,100.00
2022-11-09T22:10:09.925Z,100.00
2022-11-09T22:13:09.253Z,100.00
2022-11-09T22:16:04.979Z,100.00
2022-11-09T22:19:02.449Z,99.94
2022-11-09T22:21:34.410Z,99.75
2022-11-09T22:24:06.734Z,99.37
2022-11-09T22:26:42.366Z,99.29
2022-11-09T22:29:11.809Z,98.92
2022-11-09T22:32:03.054Z,98.74
2022-11-09T22:34:36.441Z,98.89
2022-11-09T22:37:10.149Z,98.84
2022-11-09T22:39:44.367Z,98.47
2022-11-09T22:42:28.814Z,98.37
2022-11-09T22:44:58.552Z,98.38
2022-11-09T22:47:39.007Z,98.05
2022-11-09T22:50:17.502Z,98.14
2022-11-09T22:52:53.457Z,98.41
2022-11-09T22:55:23.790Z,98.79
2022-11-09T22:57:58.971Z,99.00
2022-11-09T23:00:32.530Z,99.43
2022-11-09T23:03:18.809Z,99.62
2022-11-09T23:05:55.795Z,99.81
2022-11-09T23:08:25.759Z,100.00
2022-11-09T23:10:57.963Z,100.00
2022-11-09T23:13:33.802Z,100.00
2022-11-09T23:16:07.527Z,100.00
2022-11-09T23:19:04.959Z,100.00
2022-11-09T23:21:47.687Z,100.00
2022-11-09T23:24:39.051Z,100.00
2022-11-09T23:27:14.023Z,100.00
2022-11-09T23:29:57.140Z,100.00
2022-11-09T23:32:31.803Z,100.00
2022-11-09T23:35:03.933Z,100.00
2022-11-09T23:37:48.195Z,100.00
2022-11-09T23:40:19.884Z,100.00
2022-11-09T23:42:57.631Z,100.00
2022-11-09T23:45:53.204Z,100.00
2022-11-09T23:48:28.983Z,100.00
2022-11-09T23:51:07.836Z,100.00
2022-11-09T23:53:43.738Z,100.00
2022-11-09T23:56:17.089Z,100.00
2022-11-09T23:58:51.903Z,100.00
